createdAt,value
2018-01-13T00:00:21.354Z,1027.55
2018-01-13T00:01:21.336Z,1027.56
2018-01-13T00:02:21.310Z,1027.54
2018-01-13T00:03:21.288Z,1027.53
2018-01-13T00:04:21.267Z,1027.56
2018-01-13T00:05:21.244Z,1027.54
2018-01-13T00:06:21.221Z,1027.56
2018-01-13T00:07:21.200Z,1027.56
2018-01-13T00:08:21.176Z,1027.60
2018-01-13T00:09:21.155Z,1027.56
2018-01-13T00:10:21.132Z,1027.53
2018-01-13T00:11:21.110Z,1027.54
2018-01-13T00:12:21.088Z,1027.54
2018-01-13T00:13:21.065Z,1027.55
2018-01-13T00:14:21.043Z,1027.52
2018-01-13T00:15:21.021Z,1027.52
2018-01-13T00:16:20.998Z,1027.55
2018-01-13T00:17:20.977Z,1027.53
2018-01-13T00:18:20.953Z,1027.52
2018-01-13T00:19:20.931Z,1027.49
2018-01-13T00:20:20.910Z,1027.49
2018-01-13T00:21:20.887Z,1027.48
2018-01-13T00:22:20.864Z,1027.46
2018-01-13T00:23:20.842Z,1027.49
2018-01-13T00:24:20.820Z,1027.48
2018-01-13T00:25:20.798Z,1027.48
2018-01-13T00:26:20.779Z,1027.47
2018-01-13T00:27:20.753Z,1027.54
2018-01-13T00:28:20.729Z,1027.51
2018-01-13T00:29:20.709Z,1027.49
2018-01-13T00:30:20.686Z,1027.53
2018-01-13T00:31:20.663Z,1027.53
2018-01-13T00:32:20.641Z,1027.53
2018-01-13T00:33:20.621Z,1027.51
2018-01-13T00:34:20.642Z,1027.52
2018-01-13T00:35:20.576Z,1027.50
2018-01-13T00:36:20.552Z,1027.51
2018-01-13T00:37:20.531Z,1027.46
2018-01-13T00:38:20.508Z,1027.47
2018-01-13T00:39:20.491Z,1027.45
2018-01-13T00:40:20.465Z,1027.45
2018-01-13T00:41:20.442Z,1027.46
2018-01-13T00:42:20.420Z,1027.47
2018-01-13T00:43:20.397Z,1027.45
2018-01-13T00:44:20.376Z,1027.43
2018-01-13T00:45:20.352Z,1027.43
2018-01-13T00:46:20.331Z,1027.41
2018-01-13T00:47:20.308Z,1027.42
2018-01-13T00:48:20.286Z,1027.41
2018-01-13T00:49:20.264Z,1027.38
2018-01-13T00:50:20.242Z,1027.36
2018-01-13T00:51:20.219Z,1027.36
2018-01-13T00:52:20.197Z,1027.35
2018-01-13T00:53:20.175Z,1027.36
2018-01-13T00:54:20.153Z,1027.30
2018-01-13T00:55:20.129Z,1027.29
2018-01-13T00:56:20.107Z,1027.31
2018-01-13T00:57:20.086Z,1027.33
2018-01-13T00:58:20.062Z,1027.34
2018-01-13T00:59:20.041Z,1027.34
2018-01-13T01:00:20.024Z,1027.37
2018-01-13T01:01:19.996Z,1027.35
2018-01-13T01:02:19.975Z,1027.39
2018-01-13T01:03:19.953Z,1027.38
2018-01-13T01:04:19.930Z,1027.36
2018-01-13T01:05:19.909Z,1027.36
2018-01-13T01:06:19.890Z,1027.38
2018-01-13T01:07:19.864Z,1027.36
2018-01-13T01:08:19.841Z,1027.33
2018-01-13T01:09:19.822Z,1027.34
2018-01-13T01:10:19.796Z,1027.35
2018-01-13T01:11:19.775Z,1027.34
2018-01-13T01:12:19.753Z,1027.33
2018-01-13T01:13:19.732Z,1027.35
2018-01-13T01:14:19.709Z,1027.34
2018-01-13T01:15:19.687Z,1027.35
2018-01-13T01:16:19.665Z,1027.34
2018-01-13T01:17:19.643Z,1027.35
2018-01-13T01:18:19.619Z,1027.37
2018-01-13T01:19:19.598Z,1027.35
2018-01-13T01:20:19.576Z,1027.33
2018-01-13T01:21:19.553Z,1027.32
2018-01-13T01:22:19.530Z,1027.34
2018-01-13T01:23:19.509Z,1027.29
2018-01-13T01:24:19.489Z,1027.35
2018-01-13T01:25:19.465Z,1027.29
2018-01-13T01:26:19.441Z,1027.30
2018-01-13T01:27:19.421Z,1027.30
2018-01-13T01:28:19.398Z,1027.32
2018-01-13T01:29:19.378Z,1027.33
2018-01-13T01:30:19.354Z,1027.28
2018-01-13T01:31:19.332Z,1027.32
2018-01-13T01:32:19.310Z,1027.29
2018-01-13T01:33:19.287Z,1027.29
2018-01-13T01:34:19.265Z,1027.29
2018-01-13T01:35:19.243Z,1027.31
2018-01-13T01:36:19.220Z,1027.29
2018-01-13T01:37:19.199Z,1027.28
2018-01-13T01:38:19.176Z,1027.31
2018-01-13T01:39:19.154Z,1027.32
2018-01-13T01:40:19.132Z,1027.36
2018-01-13T01:41:19.110Z,1027.36
2018-01-13T01:42:19.088Z,1027.37
2018-01-13T01:43:19.066Z,1027.32
2018-01-13T01:44:19.044Z,1027.35
2018-01-13T01:45:19.022Z,1027.35
2018-01-13T01:46:18.998Z,1027.36
2018-01-13T01:47:18.976Z,1027.34
2018-01-13T01:48:18.958Z,1027.29
2018-01-13T01:49:18.934Z,1027.29
2018-01-13T01:50:18.912Z,1027.24
2018-01-13T01:51:18.890Z,1027.23
2018-01-13T01:52:18.867Z,1027.28
2018-01-13T01:53:18.845Z,1027.27
2018-01-13T01:54:18.823Z,1027.27
2018-01-13T01:55:18.801Z,1027.30
2018-01-13T01:56:18.779Z,1027.25
2018-01-13T01:57:18.759Z,1027.27
2018-01-13T01:58:18.734Z,1027.26
2018-01-13T01:59:18.714Z,1027.24
2018-01-13T02:00:18.691Z,1027.25
2018-01-13T02:01:18.668Z,1027.21
2018-01-13T02:02:18.646Z,1027.23
2018-01-13T02:03:18.624Z,1027.22
2018-01-13T02:04:18.602Z,1027.19
2018-01-13T02:05:18.581Z,1027.21
2018-01-13T02:06:18.556Z,1027.19
2018-01-13T02:07:18.537Z,1027.17
2018-01-13T02:08:18.514Z,1027.14
2018-01-13T02:09:18.492Z,1027.12
2018-01-13T02:10:18.468Z,1027.09
2018-01-13T02:11:18.447Z,1027.08
2018-01-13T02:12:18.424Z,1027.08
2018-01-13T02:13:18.402Z,1027.06
2018-01-13T02:14:18.379Z,1027.04
2018-01-13T02:15:18.357Z,1027.08
2018-01-13T02:16:18.336Z,1027.04
2018-01-13T02:17:18.314Z,1027.01
2018-01-13T02:18:18.291Z,1027.01
2018-01-13T02:19:18.270Z,1027.00
2018-01-13T02:20:18.246Z,1026.99
2018-01-13T02:21:18.226Z,1026.95
2018-01-13T02:22:18.202Z,1026.97
2018-01-13T02:23:18.183Z,1026.98
2018-01-13T02:24:18.159Z,1026.98
2018-01-13T02:25:18.137Z,1026.93
2018-01-13T02:26:18.113Z,1026.92
2018-01-13T02:27:18.091Z,1026.93
2018-01-13T02:28:18.070Z,1026.92
2018-01-13T02:29:18.048Z,1026.88
2018-01-13T02:30:18.025Z,1026.91
2018-01-13T02:31:18.004Z,1026.88
2018-01-13T02:32:17.982Z,1026.88
2018-01-13T02:33:17.968Z,1026.92
2018-01-13T02:34:17.936Z,1026.86
2018-01-13T02:35:17.914Z,1026.91
2018-01-13T02:36:17.893Z,1026.91
2018-01-13T02:37:17.871Z,1026.92
2018-01-13T02:38:17.847Z,1026.88
2018-01-13T02:39:17.826Z,1026.87
2018-01-13T02:40:17.808Z,1026.86
2018-01-13T02:41:17.782Z,1026.87
2018-01-13T02:42:17.761Z,1026.91
2018-01-13T02:43:17.738Z,1026.89
2018-01-13T02:44:17.716Z,1026.89
2018-01-13T02:45:17.695Z,1026.85
2018-01-13T02:46:17.672Z,1026.87
2018-01-13T02:47:17.649Z,1026.85
2018-01-13T02:48:17.628Z,1026.85
2018-01-13T02:49:17.605Z,1026.82
2018-01-13T02:50:17.583Z,1026.80
2018-01-13T02:51:17.561Z,1026.82
2018-01-13T02:52:17.539Z,1026.76
2018-01-13T02:53:17.516Z,1026.83
2018-01-13T02:54:17.494Z,1026.79
2018-01-13T02:55:17.472Z,1026.78
2018-01-13T02:56:17.450Z,1026.74
2018-01-13T02:57:17.428Z,1026.77
2018-01-13T02:58:17.405Z,1026.74
2018-01-13T02:59:17.384Z,1026.71
2018-01-13T03:00:17.361Z,1026.70
2018-01-13T03:01:17.339Z,1026.69
2018-01-13T03:02:17.316Z,1026.69
2018-01-13T03:03:17.294Z,1026.69
2018-01-13T03:04:17.273Z,1026.69
2018-01-13T03:05:17.250Z,1026.65
2018-01-13T03:06:17.228Z,1026.62
2018-01-13T03:07:17.206Z,1026.63
2018-01-13T03:08:17.184Z,1026.65
2018-01-13T03:09:17.162Z,1026.63
2018-01-13T03:10:17.139Z,1026.65
2018-01-13T03:11:17.118Z,1026.66
2018-01-13T03:12:17.094Z,1026.65
2018-01-13T03:13:17.076Z,1026.63
2018-01-13T03:14:17.050Z,1026.64
2018-01-13T03:15:17.028Z,1026.62
2018-01-13T03:16:17.007Z,1026.63
2018-01-13T03:17:16.984Z,1026.63
2018-01-13T03:18:16.962Z,1026.64
2018-01-13T03:19:16.940Z,1026.62
2018-01-13T03:20:16.918Z,1026.65
2018-01-13T03:21:16.896Z,1026.65
2018-01-13T03:22:16.873Z,1026.67
2018-01-13T03:23:16.851Z,1026.64
2018-01-13T03:24:16.830Z,1026.63
2018-01-13T03:25:16.807Z,1026.60
2018-01-13T03:26:16.784Z,1026.64
2018-01-13T03:27:16.763Z,1026.63
2018-01-13T03:28:16.740Z,1026.58
2018-01-13T03:29:16.719Z,1026.56
2018-01-13T03:30:16.696Z,1026.61
2018-01-13T03:31:16.673Z,1026.56
2018-01-13T03:32:16.652Z,1026.55
2018-01-13T03:33:16.630Z,1026.54
2018-01-13T03:34:16.606Z,1026.54
2018-01-13T03:35:16.585Z,1026.52
2018-01-13T03:36:16.563Z,1026.51
2018-01-13T03:37:16.541Z,1026.51
2018-01-13T03:38:16.517Z,1026.54
2018-01-13T03:39:16.496Z,1026.56
2018-01-13T03:40:16.473Z,1026.57
2018-01-13T03:41:16.452Z,1026.57
2018-01-13T03:42:16.430Z,1026.58
2018-01-13T03:43:16.408Z,1026.56
2018-01-13T03:44:16.384Z,1026.58
2018-01-13T03:45:16.364Z,1026.59
2018-01-13T03:46:16.342Z,1026.60
2018-01-13T03:47:16.318Z,1026.63
2018-01-13T03:48:16.297Z,1026.66
2018-01-13T03:49:16.277Z,1026.63
2018-01-13T03:50:16.251Z,1026.64
2018-01-13T03:51:16.229Z,1026.61
2018-01-13T03:52:16.207Z,1026.63
2018-01-13T03:53:16.186Z,1026.61
2018-01-13T03:54:16.163Z,1026.59
2018-01-13T03:55:16.141Z,1026.62
2018-01-13T03:56:16.117Z,1026.59
2018-01-13T03:57:16.095Z,1026.55
2018-01-13T03:58:16.074Z,1026.53
2018-01-13T03:59:16.052Z,1026.54
2018-01-13T04:00:16.030Z,1026.56
2018-01-13T04:01:16.008Z,1026.56
2018-01-13T04:02:15.985Z,1026.55
2018-01-13T04:03:15.963Z,1026.56
2018-01-13T04:04:15.941Z,1026.54
2018-01-13T04:05:15.919Z,1026.54
2018-01-13T04:06:15.896Z,1026.57
2018-01-13T04:07:15.874Z,1026.57
2018-01-13T04:08:15.852Z,1026.51
2018-01-13T04:09:15.831Z,1026.51
2018-01-13T04:10:15.806Z,1026.55
2018-01-13T04:11:15.786Z,1026.55
2018-01-13T04:12:15.764Z,1026.52
2018-01-13T04:13:15.741Z,1026.54
2018-01-13T04:14:15.719Z,1026.54
2018-01-13T04:15:15.697Z,1026.50
2018-01-13T04:16:15.674Z,1026.49
2018-01-13T04:17:15.653Z,1026.50
2018-01-13T04:18:15.631Z,1026.49
2018-01-13T04:19:15.609Z,1026.44
2018-01-13T04:20:15.586Z,1026.44
2018-01-13T04:21:15.565Z,1026.47
2018-01-13T04:22:15.543Z,1026.43
2018-01-13T04:23:15.521Z,1026.49
2018-01-13T04:24:15.498Z,1026.46
2018-01-13T04:25:15.478Z,1026.46
2018-01-13T04:26:15.455Z,1026.45
2018-01-13T04:27:15.433Z,1026.44
2018-01-13T04:28:15.411Z,1026.47
2018-01-13T04:29:15.390Z,1026.43
2018-01-13T04:30:15.367Z,1026.47
2018-01-13T04:31:15.345Z,1026.42
2018-01-13T04:32:15.323Z,1026.47
2018-01-13T04:33:15.300Z,1026.46
2018-01-13T04:34:15.279Z,1026.45
2018-01-13T04:35:15.257Z,1026.43
2018-01-13T04:36:15.236Z,1026.40
2018-01-13T04:37:15.214Z,1026.42
2018-01-13T04:38:15.192Z,1026.41
2018-01-13T04:39:15.170Z,1026.38
2018-01-13T04:40:15.147Z,1026.39
2018-01-13T04:41:15.127Z,1026.40
2018-01-13T04:42:15.103Z,1026.38
2018-01-13T04:43:15.082Z,1026.40
2018-01-13T04:44:15.060Z,1026.36
2018-01-13T04:45:15.038Z,1026.37
2018-01-13T04:46:15.016Z,1026.37
2018-01-13T04:47:14.994Z,1026.34
2018-01-13T04:48:14.973Z,1026.33
2018-01-13T04:49:14.950Z,1026.33
2018-01-13T04:50:14.927Z,1026.27
2018-01-13T04:51:14.905Z,1026.30
2018-01-13T04:52:14.888Z,1026.29
2018-01-13T04:53:14.863Z,1026.27
2018-01-13T04:54:14.840Z,1026.29
2018-01-13T04:55:14.818Z,1026.29
2018-01-13T04:56:14.796Z,1026.29
2018-01-13T04:57:14.774Z,1026.27
2018-01-13T04:58:14.751Z,1026.25
2018-01-13T04:59:14.728Z,1026.23
2018-01-13T05:00:14.708Z,1026.24
2018-01-13T05:01:14.685Z,1026.21
2018-01-13T05:02:14.664Z,1026.23
2018-01-13T05:03:14.641Z,1026.21
2018-01-13T05:04:14.619Z,1026.24
2018-01-13T05:05:14.597Z,1026.23
2018-01-13T05:06:14.575Z,1026.24
2018-01-13T05:07:14.552Z,1026.25
2018-01-13T05:08:14.529Z,1026.21
2018-01-13T05:09:14.509Z,1026.26
2018-01-13T05:10:14.485Z,1026.27
2018-01-13T05:11:14.464Z,1026.25
2018-01-13T05:12:14.442Z,1026.26
2018-01-13T05:13:14.420Z,1026.28
2018-01-13T05:14:14.397Z,1026.28
2018-01-13T05:15:14.375Z,1026.30
2018-01-13T05:16:14.353Z,1026.29
2018-01-13T05:17:14.332Z,1026.33
2018-01-13T05:18:14.307Z,1026.32
2018-01-13T05:19:14.287Z,1026.28
2018-01-13T05:20:14.265Z,1026.29
2018-01-13T05:21:14.244Z,1026.27
2018-01-13T05:22:14.221Z,1026.24
2018-01-13T05:23:14.199Z,1026.29
2018-01-13T05:24:14.177Z,1026.28
2018-01-13T05:25:14.155Z,1026.25
2018-01-13T05:26:14.131Z,1026.28
2018-01-13T05:27:14.110Z,1026.24
2018-01-13T05:28:14.088Z,1026.25
2018-01-13T05:29:14.067Z,1026.24
2018-01-13T05:30:14.044Z,1026.23
2018-01-13T05:31:14.023Z,1026.21
2018-01-13T05:32:14.001Z,1026.19
2018-01-13T05:33:13.978Z,1026.17
2018-01-13T05:34:13.959Z,1026.19
2018-01-13T05:35:13.934Z,1026.18
2018-01-13T05:36:13.913Z,1026.21
2018-01-13T05:37:13.891Z,1026.19
2018-01-13T05:38:13.868Z,1026.18
2018-01-13T05:39:13.846Z,1026.13
2018-01-13T05:40:13.823Z,1026.13
2018-01-13T05:41:13.802Z,1026.19
2018-01-13T05:42:13.779Z,1026.17
2018-01-13T05:43:13.758Z,1026.14
2018-01-13T05:44:13.736Z,1026.13
2018-01-13T05:45:13.713Z,1026.14
2018-01-13T05:46:13.691Z,1026.16
2018-01-13T05:47:13.670Z,1026.15
2018-01-13T05:48:13.648Z,1026.14
2018-01-13T05:49:13.625Z,1026.13
2018-01-13T05:50:13.603Z,1026.16
2018-01-13T05:51:13.582Z,1026.18
2018-01-13T05:52:13.559Z,1026.19
2018-01-13T05:53:13.539Z,1026.25
2018-01-13T05:54:13.521Z,1026.21
2018-01-13T05:55:13.493Z,1026.23
2018-01-13T05:56:13.471Z,1026.17
2018-01-13T05:57:13.450Z,1026.20
2018-01-13T05:58:13.428Z,1026.20
2018-01-13T05:59:13.405Z,1026.17
2018-01-13T06:00:13.385Z,1026.16
2018-01-13T06:01:13.363Z,1026.15
2018-01-13T06:02:13.339Z,1026.16
2018-01-13T06:03:13.316Z,1026.16
2018-01-13T06:04:13.296Z,1026.16
2018-01-13T06:05:13.274Z,1026.16
2018-01-13T06:06:13.250Z,1026.14
2018-01-13T06:07:13.229Z,1026.12
2018-01-13T06:08:13.207Z,1026.10
2018-01-13T06:09:13.185Z,1026.10
2018-01-13T06:10:13.162Z,1026.10
2018-01-13T06:11:13.141Z,1026.12
2018-01-13T06:12:13.118Z,1026.05
2018-01-13T06:13:13.097Z,1026.05
2018-01-13T06:14:13.074Z,1026.05
2018-01-13T06:15:13.053Z,1026.02
2018-01-13T06:16:13.031Z,1026.03
2018-01-13T06:17:13.009Z,1026.03
2018-01-13T06:18:12.986Z,1026.03
2018-01-13T06:19:12.964Z,1026.06
2018-01-13T06:20:12.942Z,1026.04
2018-01-13T06:21:12.920Z,1026.05
2018-01-13T06:22:12.897Z,1026.02
2018-01-13T06:23:12.875Z,1026.03
2018-01-13T06:24:12.853Z,1026.03
2018-01-13T06:25:12.830Z,1026.03
2018-01-13T06:26:12.808Z,1026.04
2018-01-13T06:27:12.787Z,1026.04
2018-01-13T06:28:12.765Z,1026.06
2018-01-13T06:29:12.748Z,1026.02
2018-01-13T06:30:12.720Z,1025.99
2018-01-13T06:31:12.696Z,1026.02
2018-01-13T06:32:12.674Z,1025.96
2018-01-13T06:33:12.654Z,1025.99
2018-01-13T06:34:12.632Z,1025.99
2018-01-13T06:35:12.609Z,1025.97
2018-01-13T06:36:12.588Z,1026.00
2018-01-13T06:37:12.565Z,1025.96
2018-01-13T06:38:12.542Z,1025.99
2018-01-13T06:39:12.519Z,1026.00
2018-01-13T06:40:12.498Z,1025.94
2018-01-13T06:41:12.477Z,1025.97
2018-01-13T06:42:12.454Z,1025.94
2018-01-13T06:43:12.430Z,1025.95
2018-01-13T06:44:12.410Z,1025.93
2018-01-13T06:45:12.391Z,1025.91
2018-01-13T06:46:12.365Z,1025.92
2018-01-13T06:47:12.343Z,1025.91
2018-01-13T06:48:12.327Z,1025.91
2018-01-13T06:49:12.298Z,1025.89
2018-01-13T06:50:12.277Z,1025.90
2018-01-13T06:51:12.255Z,1025.88
2018-01-13T06:52:12.231Z,1025.89
2018-01-13T06:53:12.209Z,1025.89
2018-01-13T06:54:12.188Z,1025.88
2018-01-13T06:55:12.166Z,1025.85
2018-01-13T06:56:12.144Z,1025.86
2018-01-13T06:57:12.121Z,1025.88
2018-01-13T06:58:12.097Z,1025.87
2018-01-13T06:59:12.078Z,1025.86
2018-01-13T07:00:12.055Z,1025.85
2018-01-13T07:01:12.032Z,1025.85
2018-01-13T07:02:12.040Z,1025.86
2018-01-13T07:03:11.987Z,1025.85
2018-01-13T07:04:11.965Z,1025.90
2018-01-13T07:05:11.943Z,1025.90
2018-01-13T07:06:11.921Z,1025.88
2018-01-13T07:07:11.899Z,1025.87
2018-01-13T07:08:11.878Z,1025.87
2018-01-13T07:09:11.855Z,1025.87
2018-01-13T07:10:11.832Z,1025.85
2018-01-13T07:11:11.809Z,1025.86
2018-01-13T07:12:11.788Z,1025.92
2018-01-13T07:13:11.767Z,1025.88
2018-01-13T07:14:11.742Z,1025.87
2018-01-13T07:15:11.721Z,1025.88
2018-01-13T07:16:11.701Z,1025.88
2018-01-13T07:17:11.677Z,1025.86
2018-01-13T07:18:11.655Z,1025.86
2018-01-13T07:19:11.634Z,1025.84
2018-01-13T07:20:11.610Z,1025.83
2018-01-13T07:21:11.588Z,1025.84
2018-01-13T07:22:11.565Z,1025.87
2018-01-13T07:23:11.543Z,1025.88
2018-01-13T07:24:11.521Z,1025.88
2018-01-13T07:25:11.499Z,1025.88
2018-01-13T07:26:11.479Z,1025.88
2018-01-13T07:27:11.455Z,1025.90
2018-01-13T07:28:11.432Z,1025.87
2018-01-13T07:29:11.410Z,1025.86
2018-01-13T07:30:11.387Z,1025.88
2018-01-13T07:31:11.365Z,1025.86
2018-01-13T07:32:11.342Z,1025.87
2018-01-13T07:33:11.320Z,1025.89
2018-01-13T07:34:11.299Z,1025.90
2018-01-13T07:35:11.276Z,1025.89
2018-01-13T07:36:11.257Z,1025.92
2018-01-13T07:37:11.247Z,1025.93
2018-01-13T07:38:11.209Z,1025.92
2018-01-13T07:39:11.187Z,1025.93
2018-01-13T07:40:11.165Z,1025.89
2018-01-13T07:42:11.120Z,1025.91
2018-01-13T07:43:11.098Z,1025.89
2018-01-13T07:44:11.075Z,1025.90
2018-01-13T07:45:11.054Z,1025.92
2018-01-13T07:47:11.008Z,1025.87
2018-01-13T07:48:10.986Z,1025.89
2018-01-13T07:49:10.964Z,1025.94
2018-01-13T07:50:10.941Z,1025.95
2018-01-13T07:51:10.920Z,1025.97
2018-01-13T07:52:10.897Z,1025.96
2018-01-13T07:53:10.874Z,1026.00
2018-01-13T07:54:10.852Z,1026.00
2018-01-13T07:55:10.829Z,1026.00
2018-01-13T07:56:10.808Z,1025.98
2018-01-13T07:57:10.784Z,1025.97
2018-01-13T07:58:10.761Z,1026.01
2018-01-13T07:59:10.739Z,1025.99
2018-01-13T08:00:10.716Z,1026.00
2018-01-13T08:01:10.733Z,1026.03
2018-01-13T08:02:10.670Z,1026.05
2018-01-13T08:03:10.648Z,1026.07
2018-01-13T08:04:10.625Z,1026.06
2018-01-13T08:05:10.603Z,1026.04
2018-01-13T08:06:10.580Z,1026.04
2018-01-13T08:07:10.558Z,1026.08
2018-01-13T08:08:10.536Z,1026.10
2018-01-13T08:09:10.513Z,1026.11
2018-01-13T08:10:10.490Z,1026.13
2018-01-13T08:11:10.467Z,1026.12
2018-01-13T08:12:10.444Z,1026.11
2018-01-13T08:13:10.422Z,1026.16
2018-01-13T08:14:10.399Z,1026.10
2018-01-13T08:15:10.376Z,1026.12
2018-01-13T08:16:10.354Z,1026.10
2018-01-13T08:17:10.330Z,1026.10
2018-01-13T08:18:10.314Z,1026.12
2018-01-13T08:19:10.286Z,1026.08
2018-01-13T08:20:10.263Z,1026.12
2018-01-13T08:21:10.248Z,1026.09
2018-01-13T08:22:10.217Z,1026.10
2018-01-13T08:23:10.194Z,1026.10
2018-01-13T08:24:10.172Z,1026.12
2018-01-13T08:25:10.149Z,1026.11
2018-01-13T08:26:10.126Z,1026.11
2018-01-13T08:27:10.103Z,1026.11
2018-01-13T08:28:10.084Z,1026.14
2018-01-13T08:29:10.058Z,1026.16
2018-01-13T08:30:10.036Z,1026.18
2018-01-13T08:31:10.012Z,1026.15
2018-01-13T08:32:09.990Z,1026.16
2018-01-13T08:33:09.967Z,1026.15
2018-01-13T08:34:09.944Z,1026.13
2018-01-13T08:35:09.922Z,1026.15
2018-01-13T08:36:09.900Z,1026.12
2018-01-13T08:37:09.877Z,1026.17
2018-01-13T08:38:09.854Z,1026.16
2018-01-13T08:39:09.832Z,1026.15
2018-01-13T08:40:09.809Z,1026.14
2018-01-13T08:41:09.788Z,1026.19
2018-01-13T08:42:09.764Z,1026.18
2018-01-13T08:43:09.742Z,1026.18
2018-01-13T08:44:09.720Z,1026.18
2018-01-13T08:45:09.698Z,1026.19
2018-01-13T08:46:09.675Z,1026.17
2018-01-13T08:47:09.652Z,1026.18
2018-01-13T08:48:09.630Z,1026.19
2018-01-13T08:49:09.608Z,1026.21
2018-01-13T08:50:09.585Z,1026.26
2018-01-13T08:51:09.561Z,1026.26
2018-01-13T08:52:09.540Z,1026.27
2018-01-13T08:53:09.516Z,1026.28
2018-01-13T08:54:09.493Z,1026.31
2018-01-13T08:55:09.472Z,1026.32
2018-01-13T08:56:09.449Z,1026.29
2018-01-13T08:57:09.428Z,1026.29
2018-01-13T08:58:09.407Z,1026.31
2018-01-13T08:59:09.381Z,1026.28
2018-01-13T09:00:09.359Z,1026.27
2018-01-13T09:01:09.337Z,1026.25
2018-01-13T09:02:09.314Z,1026.28
2018-01-13T09:03:09.292Z,1026.28
2018-01-13T09:04:09.271Z,1026.29
2018-01-13T09:05:09.246Z,1026.30
2018-01-13T09:06:09.225Z,1026.28
2018-01-13T09:07:09.201Z,1026.32
2018-01-13T09:08:09.178Z,1026.29
2018-01-13T09:09:09.157Z,1026.27
2018-01-13T09:10:09.133Z,1026.27
2018-01-13T09:11:09.111Z,1026.28
2018-01-13T09:12:09.090Z,1026.29
2018-01-13T09:13:09.067Z,1026.28
2018-01-13T09:14:09.044Z,1026.32
2018-01-13T09:15:09.022Z,1026.34
2018-01-13T09:16:08.998Z,1026.29
2018-01-13T09:17:08.978Z,1026.30
2018-01-13T09:18:08.954Z,1026.32
2018-01-13T09:19:08.932Z,1026.33
2018-01-13T09:20:08.910Z,1026.33
2018-01-13T09:21:08.888Z,1026.30
2018-01-13T09:22:08.864Z,1026.32
2018-01-13T09:23:08.842Z,1026.32
2018-01-13T09:24:08.820Z,1026.30
2018-01-13T09:25:08.798Z,1026.26
2018-01-13T09:26:08.775Z,1026.26
2018-01-13T09:27:08.752Z,1026.30
2018-01-13T09:28:08.728Z,1026.29
2018-01-13T09:29:08.708Z,1026.30
2018-01-13T09:30:08.684Z,1026.28
2018-01-13T09:31:08.662Z,1026.30
2018-01-13T09:32:08.640Z,1026.30
2018-01-13T09:33:08.617Z,1026.32
2018-01-13T09:34:08.641Z,1026.33
2018-01-13T09:35:08.572Z,1026.32
2018-01-13T09:36:08.550Z,1026.35
2018-01-13T09:37:08.527Z,1026.35
2018-01-13T09:38:08.504Z,1026.36
2018-01-13T09:39:08.482Z,1026.34
2018-01-13T09:40:08.459Z,1026.33
2018-01-13T09:41:08.437Z,1026.32
2018-01-13T09:42:08.413Z,1026.34
2018-01-13T09:43:08.392Z,1026.34
2018-01-13T09:44:08.370Z,1026.36
2018-01-13T09:45:08.357Z,1026.38
2018-01-13T09:46:08.324Z,1026.36
2018-01-13T09:47:08.301Z,1026.37
2018-01-13T09:48:08.280Z,1026.37
2018-01-13T09:49:08.256Z,1026.39
2018-01-13T09:50:08.234Z,1026.32
2018-01-13T09:51:08.212Z,1026.34
2018-01-13T09:52:08.190Z,1026.33
2018-01-13T09:53:08.167Z,1026.39
2018-01-13T09:54:08.143Z,1026.36
2018-01-13T09:55:08.126Z,1026.38
2018-01-13T09:56:08.100Z,1026.38
2018-01-13T09:57:08.078Z,1026.38
2018-01-13T09:58:08.054Z,1026.46
2018-01-13T09:59:08.031Z,1026.42
2018-01-13T10:00:08.010Z,1026.43
2018-01-13T10:01:07.988Z,1026.46
2018-01-13T10:02:07.964Z,1026.45
2018-01-13T10:03:07.941Z,1026.47
2018-01-13T10:04:07.923Z,1026.47
2018-01-13T10:05:07.898Z,1026.45
2018-01-13T10:06:07.874Z,1026.47
2018-01-13T10:07:07.852Z,1026.47
2018-01-13T10:08:07.830Z,1026.48
2018-01-13T10:09:07.808Z,1026.44
2018-01-13T10:10:07.784Z,1026.45
2018-01-13T10:11:07.762Z,1026.41
2018-01-13T10:12:07.742Z,1026.44
2018-01-13T10:13:07.720Z,1026.46
2018-01-13T10:14:07.696Z,1026.43
2018-01-13T10:15:07.673Z,1026.43
2018-01-13T10:16:07.660Z,1026.43
2018-01-13T10:17:07.627Z,1026.43
2018-01-13T10:18:07.605Z,1026.43
2018-01-13T10:19:07.582Z,1026.43
2018-01-13T10:20:07.561Z,1026.42
2018-01-13T10:21:07.538Z,1026.38
2018-01-13T10:22:07.515Z,1026.39
2018-01-13T10:23:07.492Z,1026.34
2018-01-13T10:24:07.471Z,1026.38
2018-01-13T10:25:07.448Z,1026.36
2018-01-13T10:26:07.426Z,1026.39
2018-01-13T10:27:07.403Z,1026.37
2018-01-13T10:28:07.380Z,1026.38
2018-01-13T10:29:07.359Z,1026.34
2018-01-13T10:30:07.336Z,1026.37
2018-01-13T10:31:07.314Z,1026.32
2018-01-13T10:32:07.292Z,1026.36
2018-01-13T10:33:07.270Z,1026.34
2018-01-13T10:34:07.249Z,1026.35
2018-01-13T10:35:07.226Z,1026.30
2018-01-13T10:36:07.203Z,1026.30
2018-01-13T10:37:07.181Z,1026.32
2018-01-13T10:38:07.159Z,1026.32
2018-01-13T10:39:07.135Z,1026.31
2018-01-13T10:40:07.115Z,1026.36
2018-01-13T10:41:07.091Z,1026.32
2018-01-13T10:42:07.070Z,1026.32
2018-01-13T10:43:07.048Z,1026.34
2018-01-13T10:44:07.026Z,1026.32
2018-01-13T10:45:07.004Z,1026.30
2018-01-13T10:46:06.984Z,1026.34
2018-01-13T10:47:06.959Z,1026.31
2018-01-13T10:48:06.938Z,1026.29
2018-01-13T10:49:06.916Z,1026.25
2018-01-13T10:50:06.892Z,1026.25
2018-01-13T10:51:06.871Z,1026.25
2018-01-13T10:52:06.855Z,1026.25
2018-01-13T10:53:06.828Z,1026.19
2018-01-13T10:54:06.805Z,1026.22
2018-01-13T10:55:06.783Z,1026.15
2018-01-13T10:56:06.761Z,1026.16
2018-01-13T10:57:06.739Z,1026.17
2018-01-13T10:58:06.716Z,1026.15
2018-01-13T10:59:06.693Z,1026.14
2018-01-13T11:00:06.672Z,1026.13
2018-01-13T11:01:06.650Z,1026.10
2018-01-13T11:02:06.627Z,1026.08
2018-01-13T11:03:06.603Z,1026.08
2018-01-13T11:04:06.581Z,1026.12
2018-01-13T11:05:06.561Z,1026.09
2018-01-13T11:06:06.538Z,1026.05
2018-01-13T11:07:06.515Z,1026.09
2018-01-13T11:08:06.494Z,1026.04
2018-01-13T11:09:06.471Z,1026.08
2018-01-13T11:10:06.449Z,1026.06
2018-01-13T11:11:06.426Z,1026.09
2018-01-13T11:12:06.404Z,1026.07
2018-01-13T11:13:06.382Z,1026.07
2018-01-13T11:14:06.362Z,1026.03
2018-01-13T11:15:06.338Z,1026.06
2018-01-13T11:16:06.316Z,1026.02
2018-01-13T11:17:06.294Z,1025.94
2018-01-13T11:18:06.270Z,1025.95
2018-01-13T11:19:06.248Z,1025.94
2018-01-13T11:20:06.227Z,1025.95
2018-01-13T11:21:06.205Z,1025.96
2018-01-13T11:22:06.182Z,1025.93
2018-01-13T11:23:06.161Z,1025.97
2018-01-13T11:24:06.138Z,1025.96
2018-01-13T11:25:06.117Z,1025.96
2018-01-13T11:26:06.094Z,1025.91
2018-01-13T11:27:06.075Z,1025.91
2018-01-13T11:28:06.050Z,1025.95
2018-01-13T11:29:06.029Z,1025.94
2018-01-13T11:30:06.006Z,1025.92
2018-01-13T11:31:05.984Z,1025.91
2018-01-13T11:32:05.966Z,1025.90
2018-01-13T11:33:05.940Z,1025.90
2018-01-13T11:34:05.917Z,1025.87
2018-01-13T11:35:05.894Z,1025.87
2018-01-13T11:36:05.874Z,1025.85
2018-01-13T11:37:05.850Z,1025.85
2018-01-13T11:38:05.828Z,1025.84
2018-01-13T11:39:05.807Z,1025.82
2018-01-13T11:40:05.785Z,1025.87
2018-01-13T11:41:05.763Z,1025.85
2018-01-13T11:42:05.740Z,1025.83
2018-01-13T11:43:05.718Z,1025.85
2018-01-13T11:44:05.697Z,1025.81
2018-01-13T11:45:05.674Z,1025.79
2018-01-13T11:46:05.652Z,1025.80
2018-01-13T11:47:05.630Z,1025.77
2018-01-13T11:48:05.608Z,1025.77
2018-01-13T11:49:05.586Z,1025.75
2018-01-13T11:50:05.564Z,1025.76
2018-01-13T11:51:05.540Z,1025.77
2018-01-13T11:52:05.518Z,1025.75
2018-01-13T11:53:05.500Z,1025.74
2018-01-13T11:54:05.475Z,1025.76
2018-01-13T11:55:05.453Z,1025.68
2018-01-13T11:56:05.433Z,1025.72
2018-01-13T11:57:05.409Z,1025.70
2018-01-13T11:58:05.385Z,1025.70
2018-01-13T11:59:05.364Z,1025.68
2018-01-13T12:00:05.342Z,1025.66
2018-01-13T12:01:05.321Z,1025.67
2018-01-13T12:02:05.298Z,1025.68
2018-01-13T12:03:05.275Z,1025.67
2018-01-13T12:04:05.254Z,1025.64
2018-01-13T12:05:05.231Z,1025.66
2018-01-13T12:06:05.211Z,1025.65
2018-01-13T12:07:05.187Z,1025.64